sensor_id;sensor_type;location;lat;lon;timestamp;temperature;humidity
67157;SHT31;54086;50.126;8.710;2023-03-14T00:00:54;10.60;91.51
67157;SHT31;54086;50.126;8.710;2023-03-14T00:03:20;10.60;91.39
67157;SHT31;54086;50.126;8.710;2023-03-14T00:05:45;10.60;91.44
67157;SHT31;54086;50.126;8.710;2023-03-14T00:08:12;10.63;91.22
67157;SHT31;54086;50.126;8.710;2023-03-14T00:10:38;10.70;90.87
67157;SHT31;54086;50.126;8.710;2023-03-14T00:13:04;10.72;90.50
67157;SHT31;54086;50.126;8.710;2023-03-14T00:15:29;10.72;90.49
67157;SHT31;54086;50.126;8.710;2023-03-14T00:17:54;10.73;90.49
67157;SHT31;54086;50.126;8.710;2023-03-14T00:20:20;10.73;90.22
67157;SHT31;54086;50.126;8.710;2023-03-14T00:22:45;10.75;89.90
67157;SHT31;54086;50.126;8.710;2023-03-14T00:25:11;10.79;90.02
67157;SHT31;54086;50.126;8.710;2023-03-14T00:27:37;10.77;89.59
67157;SHT31;54086;50.126;8.710;2023-03-14T00:30:03;10.80;89.59
67157;SHT31;54086;50.126;8.710;2023-03-14T00:32:29;10.80;89.42
67157;SHT31;54086;50.126;8.710;2023-03-14T00:34:54;10.80;89.50
67157;SHT31;54086;50.126;8.710;2023-03-14T00:37:20;10.77;89.52
67157;SHT31;54086;50.126;8.710;2023-03-14T00:39:45;10.79;89.54
67157;SHT31;54086;50.126;8.710;2023-03-14T00:42:11;10.75;89.60
67157;SHT31;54086;50.126;8.710;2023-03-14T00:44:36;10.70;89.77
67157;SHT31;54086;50.126;8.710;2023-03-14T00:47:02;10.70;89.67
67157;SHT31;54086;50.126;8.710;2023-03-14T00:49:27;10.68;89.68
67157;SHT31;54086;50.126;8.710;2023-03-14T00:51:52;10.68;89.59
67157;SHT31;54086;50.126;8.710;2023-03-14T00:54:19;10.66;89.45
67157;SHT31;54086;50.126;8.710;2023-03-14T00:56:44;10.63;89.53
67157;SHT31;54086;50.126;8.710;2023-03-14T00:59:10;10.62;89.61
67157;SHT31;54086;50.126;8.710;2023-03-14T01:01:35;10.62;89.50
67157;SHT31;54086;50.126;8.710;2023-03-14T01:04:01;10.62;89.34
67157;SHT31;54086;50.126;8.710;2023-03-14T01:06:28;10.58;89.35
67157;SHT31;54086;50.126;8.710;2023-03-14T01:08:55;10.59;89.42
67157;SHT31;54086;50.126;8.710;2023-03-14T01:11:26;10.59;89.48
67157;SHT31;54086;50.126;8.710;2023-03-14T01:13:52;10.56;89.48
67157;SHT31;54086;50.126;8.710;2023-03-14T01:16:19;10.55;89.33
67157;SHT31;54086;50.126;8.710;2023-03-14T01:18:46;10.60;89.16
67157;SHT31;54086;50.126;8.710;2023-03-14T01:21:19;10.62;89.12
67157;SHT31;54086;50.126;8.710;2023-03-14T01:23:46;10.62;89.15
67157;SHT31;54086;50.126;8.710;2023-03-14T01:26:12;10.66;89.10
67157;SHT31;54086;50.126;8.710;2023-03-14T01:28:39;10.65;89.00
67157;SHT31;54086;50.126;8.710;2023-03-14T01:31:07;10.66;88.98
67157;SHT31;54086;50.126;8.710;2023-03-14T01:33:32;10.70;88.89
67157;SHT31;54086;50.126;8.710;2023-03-14T01:35:58;10.72;88.88
67157;SHT31;54086;50.126;8.710;2023-03-14T01:38:23;10.73;88.57
67157;SHT31;54086;50.126;8.710;2023-03-14T01:40:49;10.73;88.50
67157;SHT31;54086;50.126;8.710;2023-03-14T01:43:17;10.72;88.54
67157;SHT31;54086;50.126;8.710;2023-03-14T01:48:25;10.84;87.59
67157;SHT31;54086;50.126;8.710;2023-03-14T01:50:50;10.90;87.55
67157;SHT31;54086;50.126;8.710;2023-03-14T01:53:16;10.86;87.54
67157;SHT31;54086;50.126;8.710;2023-03-14T01:55:42;10.87;87.41
67157;SHT31;54086;50.126;8.710;2023-03-14T01:58:08;10.89;87.21
67157;SHT31;54086;50.126;8.710;2023-03-14T02:00:33;10.90;87.29
67157;SHT31;54086;50.126;8.710;2023-03-14T02:03:01;10.89;87.33
67157;SHT31;54086;50.126;8.710;2023-03-14T02:05:32;10.86;87.30
67157;SHT31;54086;50.126;8.710;2023-03-14T02:08:01;10.89;87.29
67157;SHT31;54086;50.126;8.710;2023-03-14T02:10:29;10.89;87.35
67157;SHT31;54086;50.126;8.710;2023-03-14T02:12:56;10.87;87.35
67157;SHT31;54086;50.126;8.710;2023-03-14T02:15:24;10.84;87.49
67157;SHT31;54086;50.126;8.710;2023-03-14T02:17:51;10.83;87.55
67157;SHT31;54086;50.126;8.710;2023-03-14T02:23:02;10.84;87.42
67157;SHT31;54086;50.126;8.710;2023-03-14T02:26:01;10.89;87.31
67157;SHT31;54086;50.126;8.710;2023-03-14T02:28:29;10.90;87.58
67157;SHT31;54086;50.126;8.710;2023-03-14T02:30:55;10.84;87.75
67157;SHT31;54086;50.126;8.710;2023-03-14T02:33:21;10.87;87.79
67157;SHT31;54086;50.126;8.710;2023-03-14T02:35:51;10.89;87.60
67157;SHT31;54086;50.126;8.710;2023-03-14T02:38:31;10.92;87.51
67157;SHT31;54086;50.126;8.710;2023-03-14T02:40:57;10.93;87.39
67157;SHT31;54086;50.126;8.710;2023-03-14T02:43:23;10.95;87.27
67157;SHT31;54086;50.126;8.710;2023-03-14T02:45:49;10.93;87.19
67157;SHT31;54086;50.126;8.710;2023-03-14T02:48:19;10.97;86.88
67157;SHT31;54086;50.126;8.710;2023-03-14T02:50:48;11.00;86.82
67157;SHT31;54086;50.126;8.710;2023-03-14T02:53:18;11.03;86.81
67157;SHT31;54086;50.126;8.710;2023-03-14T02:55:46;11.00;86.96
67157;SHT31;54086;50.126;8.710;2023-03-14T02:58:12;10.99;86.82
67157;SHT31;54086;50.126;8.710;2023-03-14T03:00:37;11.01;86.76
67157;SHT31;54086;50.126;8.710;2023-03-14T03:03:03;10.99;87.05
67157;SHT31;54086;50.126;8.710;2023-03-14T03:05:30;10.97;86.63
67157;SHT31;54086;50.126;8.710;2023-03-14T03:07:55;11.00;86.51
67157;SHT31;54086;50.126;8.710;2023-03-14T03:10:22;10.99;86.56
67157;SHT31;54086;50.126;8.710;2023-03-14T03:12:47;10.95;86.85
67157;SHT31;54086;50.126;8.710;2023-03-14T03:15:13;10.95;86.80
67157;SHT31;54086;50.126;8.710;2023-03-14T03:17:38;10.95;86.86
67157;SHT31;54086;50.126;8.710;2023-03-14T03:20:03;10.90;86.99
67157;SHT31;54086;50.126;8.710;2023-03-14T03:22:30;10.93;86.85
67157;SHT31;54086;50.126;8.710;2023-03-14T03:24:55;10.93;86.89
67157;SHT31;54086;50.126;8.710;2023-03-14T03:27:21;10.87;87.08
67157;SHT31;54086;50.126;8.710;2023-03-14T03:29:46;10.83;87.32
67157;SHT31;54086;50.126;8.710;2023-03-14T03:32:12;10.86;87.33
67157;SHT31;54086;50.126;8.710;2023-03-14T03:34:38;10.81;87.41
67157;SHT31;54086;50.126;8.710;2023-03-14T03:37:03;10.83;87.51
67157;SHT31;54086;50.126;8.710;2023-03-14T03:39:28;10.89;87.36
67157;SHT31;54086;50.126;8.710;2023-03-14T03:41:54;10.84;87.38
67157;SHT31;54086;50.126;8.710;2023-03-14T03:44:19;10.80;87.55
67157;SHT31;54086;50.126;8.710;2023-03-14T03:46:45;10.75;87.69
67157;SHT31;54086;50.126;8.710;2023-03-14T03:49:10;10.76;87.47
67157;SHT31;54086;50.126;8.710;2023-03-14T03:51:35;10.80;87.39
67157;SHT31;54086;50.126;8.710;2023-03-14T03:54:01;10.79;87.43
67157;SHT31;54086;50.126;8.710;2023-03-14T03:56:26;10.77;87.44
67157;SHT31;54086;50.126;8.710;2023-03-14T03:58:51;10.77;87.48
67157;SHT31;54086;50.126;8.710;2023-03-14T04:01:17;10.76;87.39
67157;SHT31;54086;50.126;8.710;2023-03-14T04:03:42;10.76;87.49
67157;SHT31;54086;50.126;8.710;2023-03-14T04:06:11;10.77;87.49
67157;SHT31;54086;50.126;8.710;2023-03-14T04:08:37;10.76;87.42
67157;SHT31;54086;50.126;8.710;2023-03-14T04:11:03;10.77;87.36
67157;SHT31;54086;50.126;8.710;2023-03-14T04:13:29;10.77;87.43
67157;SHT31;54086;50.126;8.710;2023-03-14T04:15:54;10.77;87.37
67157;SHT31;54086;50.126;8.710;2023-03-14T04:18:20;10.77;87.11
67157;SHT31;54086;50.126;8.710;2023-03-14T04:20:51;10.80;87.25
67157;SHT31;54086;50.126;8.710;2023-03-14T04:23:16;10.83;86.99
67157;SHT31;54086;50.126;8.710;2023-03-14T04:25:42;10.81;87.01
67157;SHT31;54086;50.126;8.710;2023-03-14T04:28:07;10.77;87.09
67157;SHT31;54086;50.126;8.710;2023-03-14T04:30:32;10.81;86.92
67157;SHT31;54086;50.126;8.710;2023-03-14T04:32:58;10.81;87.03
67157;SHT31;54086;50.126;8.710;2023-03-14T04:35:23;10.79;87.03
67157;SHT31;54086;50.126;8.710;2023-03-14T04:37:48;10.83;86.75
67157;SHT31;54086;50.126;8.710;2023-03-14T04:40:15;10.83;86.68
67157;SHT31;54086;50.126;8.710;2023-03-14T04:42:40;10.84;86.39
67157;SHT31;54086;50.126;8.710;2023-03-14T04:45:06;10.87;86.37
67157;SHT31;54086;50.126;8.710;2023-03-14T04:47:32;10.87;86.00
67157;SHT31;54086;50.126;8.710;2023-03-14T04:49:57;10.92;85.74
67157;SHT31;54086;50.126;8.710;2023-03-14T04:52:22;10.87;85.47
67157;SHT31;54086;50.126;8.710;2023-03-14T04:54:48;10.92;85.33
67157;SHT31;54086;50.126;8.710;2023-03-14T04:57:13;10.92;85.36
67157;SHT31;54086;50.126;8.710;2023-03-14T04:59:38;10.95;85.18
67157;SHT31;54086;50.126;8.710;2023-03-14T05:02:04;10.93;84.91
67157;SHT31;54086;50.126;8.710;2023-03-14T05:04:29;10.92;84.90
67157;SHT31;54086;50.126;8.710;2023-03-14T05:06:58;10.90;84.73
67157;SHT31;54086;50.126;8.710;2023-03-14T05:09:23;10.95;84.46
67157;SHT31;54086;50.126;8.710;2023-03-14T05:11:48;10.95;84.25
67157;SHT31;54086;50.126;8.710;2023-03-14T05:14:14;10.92;84.42
67157;SHT31;54086;50.126;8.710;2023-03-14T05:16:39;10.92;84.31
67157;SHT31;54086;50.126;8.710;2023-03-14T05:19:04;10.90;84.35
67157;SHT31;54086;50.126;8.710;2023-03-14T05:21:30;10.93;84.26
67157;SHT31;54086;50.126;8.710;2023-03-14T05:23:55;10.87;84.27
67157;SHT31;54086;50.126;8.710;2023-03-14T05:26:20;10.87;84.22
67157;SHT31;54086;50.126;8.710;2023-03-14T05:28:46;10.92;84.03
67157;SHT31;54086;50.126;8.710;2023-03-14T05:31:11;10.95;83.87
67157;SHT31;54086;50.126;8.710;2023-03-14T05:33:37;10.87;84.03
67157;SHT31;54086;50.126;8.710;2023-03-14T05:36:02;10.87;83.96
67157;SHT31;54086;50.126;8.710;2023-03-14T05:38:28;10.92;83.69
67157;SHT31;54086;50.126;8.710;2023-03-14T05:40:53;10.87;83.83
67157;SHT31;54086;50.126;8.710;2023-03-14T05:43:18;10.90;83.76
67157;SHT31;54086;50.126;8.710;2023-03-14T05:45:44;10.90;83.66
67157;SHT31;54086;50.126;8.710;2023-03-14T05:48:09;10.87;83.74
67157;SHT31;54086;50.126;8.710;2023-03-14T05:50:35;10.87;83.81
67157;SHT31;54086;50.126;8.710;2023-03-14T05:53:00;10.89;83.76
67157;SHT31;54086;50.126;8.710;2023-03-14T05:55:25;10.84;83.91
67157;SHT31;54086;50.126;8.710;2023-03-14T05:57:53;10.86;84.03
67157;SHT31;54086;50.126;8.710;2023-03-14T06:00:18;10.86;83.88
67157;SHT31;54086;50.126;8.710;2023-03-14T06:02:44;10.84;83.87
67157;SHT31;54086;50.126;8.710;2023-03-14T06:05:10;10.86;83.76
67157;SHT31;54086;50.126;8.710;2023-03-14T06:07:36;10.84;83.73
67157;SHT31;54086;50.126;8.710;2023-03-14T06:10:01;10.83;83.99
67157;SHT31;54086;50.126;8.710;2023-03-14T06:12:27;10.87;83.66
67157;SHT31;54086;50.126;8.710;2023-03-14T06:14:53;10.84;83.77
67157;SHT31;54086;50.126;8.710;2023-03-14T06:17:18;10.84;83.82
67157;SHT31;54086;50.126;8.710;2023-03-14T06:19:43;10.83;83.87
67157;SHT31;54086;50.126;8.710;2023-03-14T06:22:09;10.79;83.86
67157;SHT31;54086;50.126;8.710;2023-03-14T06:24:34;10.80;83.98
67157;SHT31;54086;50.126;8.710;2023-03-14T06:27:00;10.76;83.92
67157;SHT31;54086;50.126;8.710;2023-03-14T06:29:27;10.77;83.91
67157;SHT31;54086;50.126;8.710;2023-03-14T06:31:53;10.83;84.10
67157;SHT31;54086;50.126;8.710;2023-03-14T06:34:18;10.77;83.98
67157;SHT31;54086;50.126;8.710;2023-03-14T06:36:43;10.79;83.94
67157;SHT31;54086;50.126;8.710;2023-03-14T06:39:09;10.76;84.04
67157;SHT31;54086;50.126;8.710;2023-03-14T06:41:34;10.77;84.13
67157;SHT31;54086;50.126;8.710;2023-03-14T06:44:00;10.81;83.69
67157;SHT31;54086;50.126;8.710;2023-03-14T06:46:25;10.77;83.78
67157;SHT31;54086;50.126;8.710;2023-03-14T06:48:50;10.79;83.85
67157;SHT31;54086;50.126;8.710;2023-03-14T06:51:16;10.81;83.80
67157;SHT31;54086;50.126;8.710;2023-03-14T06:53:41;10.79;83.58
67157;SHT31;54086;50.126;8.710;2023-03-14T06:56:07;10.77;83.81
67157;SHT31;54086;50.126;8.710;2023-03-14T06:58:32;10.77;83.66
67157;SHT31;54086;50.126;8.710;2023-03-14T07:00:58;10.81;83.65
67157;SHT31;54086;50.126;8.710;2023-03-14T07:03:24;10.81;83.63
67157;SHT31;54086;50.126;8.710;2023-03-14T07:05:49;10.80;83.72
67157;SHT31;54086;50.126;8.710;2023-03-14T07:08:15;10.81;83.58
67157;SHT31;54086;50.126;8.710;2023-03-14T07:10:40;10.83;83.61
67157;SHT31;54086;50.126;8.710;2023-03-14T07:13:06;10.86;83.43
67157;SHT31;54086;50.126;8.710;2023-03-14T07:15:31;10.83;83.37
67157;SHT31;54086;50.126;8.710;2023-03-14T07:17:56;10.86;83.29
67157;SHT31;54086;50.126;8.710;2023-03-14T07:20:22;10.86;83.42
67157;SHT31;54086;50.126;8.710;2023-03-14T07:22:48;10.83;83.68
67157;SHT31;54086;50.126;8.710;2023-03-14T07:25:14;10.83;83.53
67157;SHT31;54086;50.126;8.710;2023-03-14T07:27:40;10.86;83.70
67157;SHT31;54086;50.126;8.710;2023-03-14T07:30:05;10.89;83.46
67157;SHT31;54086;50.126;8.710;2023-03-14T07:32:31;10.87;83.48
67157;SHT31;54086;50.126;8.710;2023-03-14T07:34:56;10.92;83.30
67157;SHT31;54086;50.126;8.710;2023-03-14T07:37:21;10.95;83.47
67157;SHT31;54086;50.126;8.710;2023-03-14T07:39:47;10.96;83.35
67157;SHT31;54086;50.126;8.710;2023-03-14T07:42:12;11.00;83.38
67157;SHT31;54086;50.126;8.710;2023-03-14T07:44:37;10.93;83.27
67157;SHT31;54086;50.126;8.710;2023-03-14T07:47:03;10.96;83.55
67157;SHT31;54086;50.126;8.710;2023-03-14T07:49:28;11.00;83.54
67157;SHT31;54086;50.126;8.710;2023-03-14T07:51:54;10.92;83.77
67157;SHT31;54086;50.126;8.710;2023-03-14T07:54:19;10.90;83.87
67157;SHT31;54086;50.126;8.710;2023-03-14T07:56:45;10.89;84.03
67157;SHT31;54086;50.126;8.710;2023-03-14T07:59:10;10.87;83.99
67157;SHT31;54086;50.126;8.710;2023-03-14T08:01:37;10.90;84.04
67157;SHT31;54086;50.126;8.710;2023-03-14T08:04:02;10.90;84.02
67157;SHT31;54086;50.126;8.710;2023-03-14T08:06:27;10.95;84.05
67157;SHT31;54086;50.126;8.710;2023-03-14T08:08:53;10.96;83.76
67157;SHT31;54086;50.126;8.710;2023-03-14T08:11:18;10.93;83.91
67157;SHT31;54086;50.126;8.710;2023-03-14T08:13:44;10.95;84.04
67157;SHT31;54086;50.126;8.710;2023-03-14T08:16:15;10.96;84.08
67157;SHT31;54086;50.126;8.710;2023-03-14T08:18:41;10.97;84.00
67157;SHT31;54086;50.126;8.710;2023-03-14T08:21:06;10.99;84.11
67157;SHT31;54086;50.126;8.710;2023-03-14T08:23:32;10.99;84.12
67157;SHT31;54086;50.126;8.710;2023-03-14T08:25:57;10.97;84.03
67157;SHT31;54086;50.126;8.710;2023-03-14T08:28:22;10.97;84.11
67157;SHT31;54086;50.126;8.710;2023-03-14T08:30:48;11.04;84.03
67157;SHT31;54086;50.126;8.710;2023-03-14T08:33:13;11.06;84.08
67157;SHT31;54086;50.126;8.710;2023-03-14T08:35:39;11.09;84.09
67157;SHT31;54086;50.126;8.710;2023-03-14T08:38:04;11.06;93.55
67157;SHT31;54086;50.126;8.710;2023-03-14T08:40:30;11.16;84.23
67157;SHT31;54086;50.126;8.710;2023-03-14T08:42:55;11.18;83.87
67157;SHT31;54086;50.126;8.710;2023-03-14T08:45:20;11.14;84.30
67157;SHT31;54086;50.126;8.710;2023-03-14T08:47:46;11.09;85.43
67157;SHT31;54086;50.126;8.710;2023-03-14T08:50:12;11.17;85.42
67157;SHT31;54086;50.126;8.710;2023-03-14T08:52:38;11.13;84.80
67157;SHT31;54086;50.126;8.710;2023-03-14T08:55:06;11.16;84.47
67157;SHT31;54086;50.126;8.710;2023-03-14T08:57:32;11.23;84.53
67157;SHT31;54086;50.126;8.710;2023-03-14T08:59:57;11.23;84.21
67157;SHT31;54086;50.126;8.710;2023-03-14T09:02:24;11.26;84.19
67157;SHT31;54086;50.126;8.710;2023-03-14T09:04:50;11.32;83.87
67157;SHT31;54086;50.126;8.710;2023-03-14T09:07:16;11.31;83.90
67157;SHT31;54086;50.126;8.710;2023-03-14T09:09:41;11.39;83.92
67157;SHT31;54086;50.126;8.710;2023-03-14T09:12:07;11.51;83.54
67157;SHT31;54086;50.126;8.710;2023-03-14T09:14:32;11.59;83.46
67157;SHT31;54086;50.126;8.710;2023-03-14T09:16:57;11.72;83.26
67157;SHT31;54086;50.126;8.710;2023-03-14T09:19:23;11.81;82.85
67157;SHT31;54086;50.126;8.710;2023-03-14T09:21:48;11.79;82.71
67157;SHT31;54086;50.126;8.710;2023-03-14T09:24:14;11.88;82.62
67157;SHT31;54086;50.126;8.710;2023-03-14T09:26:39;12.09;81.73
67157;SHT31;54086;50.126;8.710;2023-03-14T09:29:05;12.23;81.52
67157;SHT31;54086;50.126;8.710;2023-03-14T09:31:30;12.00;81.59
67157;SHT31;54086;50.126;8.710;2023-03-14T09:33:56;12.02;81.75
67157;SHT31;54086;50.126;8.710;2023-03-14T09:36:21;12.09;81.31
67157;SHT31;54086;50.126;8.710;2023-03-14T09:38:47;12.17;81.01
67157;SHT31;54086;50.126;8.710;2023-03-14T09:41:21;12.15;81.19
67157;SHT31;54086;50.126;8.710;2023-03-14T09:43:47;12.10;81.41
67157;SHT31;54086;50.126;8.710;2023-03-14T09:46:16;11.95;82.15
67157;SHT31;54086;50.126;8.710;2023-03-14T09:48:43;11.95;82.95
67157;SHT31;54086;50.126;8.710;2023-03-14T09:51:14;11.89;83.12
67157;SHT31;54086;50.126;8.710;2023-03-14T09:53:43;11.89;83.77
67157;SHT31;54086;50.126;8.710;2023-03-14T09:56:21;11.82;83.93
67157;SHT31;54086;50.126;8.710;2023-03-14T09:58:52;11.61;84.98
67157;SHT31;54086;50.126;8.710;2023-03-14T10:01:27;11.35;86.92
67157;SHT31;54086;50.126;8.710;2023-03-14T10:03:58;11.30;87.43
67157;SHT31;54086;50.126;8.710;2023-03-14T10:06:27;11.28;87.53
67157;SHT31;54086;50.126;8.710;2023-03-14T10:08:54;11.32;87.21
67157;SHT31;54086;50.126;8.710;2023-03-14T10:11:20;11.32;86.02
67157;SHT31;54086;50.126;8.710;2023-03-14T10:16:33;11.42;85.95
67157;SHT31;54086;50.126;8.710;2023-03-14T10:19:13;11.47;85.84
67157;SHT31;54086;50.126;8.710;2023-03-14T10:21:53;11.52;84.74
67157;SHT31;54086;50.126;8.710;2023-03-14T10:26:59;11.64;84.33
67157;SHT31;54086;50.126;8.710;2023-03-14T10:29:27;11.72;84.07
67157;SHT31;54086;50.126;8.710;2023-03-14T10:31:56;11.74;84.15
67157;SHT31;54086;50.126;8.710;2023-03-14T10:37:17;11.77;83.80
67157;SHT31;54086;50.126;8.710;2023-03-14T10:39:50;11.69;83.92
67157;SHT31;54086;50.126;8.710;2023-03-14T10:44:44;11.65;84.99
67157;SHT31;54086;50.126;8.710;2023-03-14T10:47:19;11.68;84.88
67157;SHT31;54086;50.126;8.710;2023-03-14T10:49:46;11.64;85.27
67157;SHT31;54086;50.126;8.710;2023-03-14T10:52:21;11.59;86.06
67157;SHT31;54086;50.126;8.710;2023-03-14T10:55:02;11.50;87.02
67157;SHT31;54086;50.126;8.710;2023-03-14T10:57:28;11.35;87.87
67157;SHT31;54086;50.126;8.710;2023-03-14T10:59:55;11.21;88.44
67157;SHT31;54086;50.126;8.710;2023-03-14T11:08:10;10.90;90.36
67157;SHT31;54086;50.126;8.710;2023-03-14T11:10:42;10.77;91.05
67157;SHT31;54086;50.126;8.710;2023-03-14T11:13:30;10.72;91.08
67157;SHT31;54086;50.126;8.710;2023-03-14T11:22:09;10.66;92.07
67157;SHT31;54086;50.126;8.710;2023-03-14T11:33:14;10.75;91.47
67157;SHT31;54086;50.126;8.710;2023-03-14T11:35:58;10.77;91.17
67157;SHT31;54086;50.126;8.710;2023-03-14T11:41:04;10.93;90.35
67157;SHT31;54086;50.126;8.710;2023-03-14T11:43:36;10.92;90.40
67157;SHT31;54086;50.126;8.710;2023-03-14T11:46:33;11.07;90.64
67157;SHT31;54086;50.126;8.710;2023-03-14T11:49:13;11.23;90.30
67157;SHT31;54086;50.126;8.710;2023-03-14T11:51:47;11.24;89.73
67157;SHT31;54086;50.126;8.710;2023-03-14T11:54:20;11.32;89.35
67157;SHT31;54086;50.126;8.710;2023-03-14T11:56:59;11.44;89.72
67157;SHT31;54086;50.126;8.710;2023-03-14T12:02:35;11.37;89.49
67157;SHT31;54086;50.126;8.710;2023-03-14T12:05:38;11.34;89.53
67157;SHT31;54086;50.126;8.710;2023-03-14T12:10:43;11.37;89.40
67157;SHT31;54086;50.126;8.710;2023-03-14T12:13:12;10.86;90.44
67157;SHT31;54086;50.126;8.710;2023-03-14T12:15:40;10.10;90.59
67157;SHT31;54086;50.126;8.710;2023-03-14T12:18:19;9.64;89.92
67157;SHT31;54086;50.126;8.710;2023-03-14T12:20:55;9.57;90.41
67157;SHT31;54086;50.126;8.710;2023-03-14T12:23:21;9.49;90.16
67157;SHT31;54086;50.126;8.710;2023-03-14T12:25:47;9.63;91.07
67157;SHT31;54086;50.126;8.710;2023-03-14T12:28:21;9.47;88.39
67157;SHT31;54086;50.126;8.710;2023-03-14T12:30:47;9.63;88.95
67157;SHT31;54086;50.126;8.710;2023-03-14T12:35:44;9.84;88.13
67157;SHT31;54086;50.126;8.710;2023-03-14T12:41:28;9.91;87.44
67157;SHT31;54086;50.126;8.710;2023-03-14T12:43:54;9.73;86.14
67157;SHT31;54086;50.126;8.710;2023-03-14T12:46:23;9.74;86.54
67157;SHT31;54086;50.126;8.710;2023-03-14T12:48:54;9.61;85.46
67157;SHT31;54086;50.126;8.710;2023-03-14T12:51:29;9.44;85.27
67157;SHT31;54086;50.126;8.710;2023-03-14T12:57:04;9.87;86.42
67157;SHT31;54086;50.126;8.710;2023-03-14T13:04:45;9.86;84.20
67157;SHT31;54086;50.126;8.710;2023-03-14T13:15:20;10.15;83.26
67157;SHT31;54086;50.126;8.710;2023-03-14T13:17:47;10.19;80.59
67157;SHT31;54086;50.126;8.710;2023-03-14T13:20:24;10.29;80.61
67157;SHT31;54086;50.126;8.710;2023-03-14T13:22:51;10.37;79.30
67157;SHT31;54086;50.126;8.710;2023-03-14T13:25:17;10.44;78.47
67157;SHT31;54086;50.126;8.710;2023-03-14T13:27:43;10.39;78.30
67157;SHT31;54086;50.126;8.710;2023-03-14T13:30:27;10.60;77.43
67157;SHT31;54086;50.126;8.710;2023-03-14T13:32:53;10.79;77.18
67157;SHT31;54086;50.126;8.710;2023-03-14T13:35:20;10.62;77.63
67157;SHT31;54086;50.126;8.710;2023-03-14T13:37:46;10.56;78.03
67157;SHT31;54086;50.126;8.710;2023-03-14T13:40:26;10.68;77.46
67157;SHT31;54086;50.126;8.710;2023-03-14T13:43:24;10.65;77.81
67157;SHT31;54086;50.126;8.710;2023-03-14T13:48:30;11.07;78.14
67157;SHT31;54086;50.126;8.710;2023-03-14T13:51:03;11.27;77.87
67157;SHT31;54086;50.126;8.710;2023-03-14T13:53:29;11.07;77.62
67157;SHT31;54086;50.126;8.710;2023-03-14T13:55:55;10.87;77.64
67157;SHT31;54086;50.126;8.710;2023-03-14T13:58:30;10.55;79.26
67157;SHT31;54086;50.126;8.710;2023-03-14T14:03:27;10.31;78.66
67157;SHT31;54086;50.126;8.710;2023-03-14T14:05:55;10.27;78.43
67157;SHT31;54086;50.126;8.710;2023-03-14T14:08:21;10.29;78.17
67157;SHT31;54086;50.126;8.710;2023-03-14T14:10:47;10.45;80.42
67157;SHT31;54086;50.126;8.710;2023-03-14T14:13:17;10.01;79.84
67157;SHT31;54086;50.126;8.710;2023-03-14T14:15:48;10.15;80.97
67157;SHT31;54086;50.126;8.710;2023-03-14T14:18:17;10.08;79.71
67157;SHT31;54086;50.126;8.710;2023-03-14T14:20:45;10.08;79.92
67157;SHT31;54086;50.126;8.710;2023-03-14T14:23:13;10.27;78.51
67157;SHT31;54086;50.126;8.710;2023-03-14T14:25:39;10.28;78.31
67157;SHT31;54086;50.126;8.710;2023-03-14T14:28:37;10.19;77.98
67157;SHT31;54086;50.126;8.710;2023-03-14T14:31:20;9.98;78.82
67157;SHT31;54086;50.126;8.710;2023-03-14T14:33:54;9.76;82.09
67157;SHT31;54086;50.126;8.710;2023-03-14T14:38:52;8.80;83.61
67157;SHT31;54086;50.126;8.710;2023-03-14T14:41:18;8.39;82.75
67157;SHT31;54086;50.126;8.710;2023-03-14T14:43:44;8.54;83.27
67157;SHT31;54086;50.126;8.710;2023-03-14T14:46:10;8.59;83.00
67157;SHT31;54086;50.126;8.710;2023-03-14T14:48:41;8.74;84.10
67157;SHT31;54086;50.126;8.710;2023-03-14T14:51:07;8.77;83.00
67157;SHT31;54086;50.126;8.710;2023-03-14T14:53:41;8.60;81.98
67157;SHT31;54086;50.126;8.710;2023-03-14T14:56:18;8.78;83.18
67157;SHT31;54086;50.126;8.710;2023-03-14T14:58:46;8.67;82.16
67157;SHT31;54086;50.126;8.710;2023-03-14T15:01:20;8.68;83.22
67157;SHT31;54086;50.126;8.710;2023-03-14T15:03:49;8.60;82.68
67157;SHT31;54086;50.126;8.710;2023-03-14T15:06:16;8.57;82.35
67157;SHT31;54086;50.126;8.710;2023-03-14T15:08:46;8.28;82.42
67157;SHT31;54086;50.126;8.710;2023-03-14T15:11:38;8.22;83.58
67157;SHT31;54086;50.126;8.710;2023-03-14T15:14:04;8.09;83.38
67157;SHT31;54086;50.126;8.710;2023-03-14T15:16:31;7.98;83.83
67157;SHT31;54086;50.126;8.710;2023-03-14T15:19:02;7.98;84.25
67157;SHT31;54086;50.126;8.710;2023-03-14T15:21:30;7.83;83.94
67157;SHT31;54086;50.126;8.710;2023-03-14T15:23:56;7.81;83.52
67157;SHT31;54086;50.126;8.710;2023-03-14T15:26:24;8.09;84.42
67157;SHT31;54086;50.126;8.710;2023-03-14T15:28:50;7.95;83.10
67157;SHT31;54086;50.126;8.710;2023-03-14T15:31:17;7.75;83.07
67157;SHT31;54086;50.126;8.710;2023-03-14T15:33:44;7.91;83.64
67157;SHT31;54086;50.126;8.710;2023-03-14T15:36:19;7.92;82.70
67157;SHT31;54086;50.126;8.710;2023-03-14T15:38:45;7.78;82.37
67157;SHT31;54086;50.126;8.710;2023-03-14T15:41:11;7.68;82.19
67157;SHT31;54086;50.126;8.710;2023-03-14T15:43:36;7.64;82.16
67157;SHT31;54086;50.126;8.710;2023-03-14T15:46:01;7.77;83.34
67157;SHT31;54086;50.126;8.710;2023-03-14T15:48:27;7.75;82.29
67157;SHT31;54086;50.126;8.710;2023-03-14T15:50:52;7.92;82.56
67157;SHT31;54086;50.126;8.710;2023-03-14T15:53:17;7.89;82.11
67157;SHT31;54086;50.126;8.710;2023-03-14T15:55:43;7.93;82.01
67157;SHT31;54086;50.126;8.710;2023-03-14T15:58:19;8.06;81.49
67157;SHT31;54086;50.126;8.710;2023-03-14T16:00:45;7.98;81.77
67157;SHT31;54086;50.126;8.710;2023-03-14T16:03:10;7.85;81.60
67157;SHT31;54086;50.126;8.710;2023-03-14T16:05:37;7.78;81.71
67157;SHT31;54086;50.126;8.710;2023-03-14T16:08:03;7.85;82.07
67157;SHT31;54086;50.126;8.710;2023-03-14T16:10:31;7.75;82.09
67157;SHT31;54086;50.126;8.710;2023-03-14T16:12:57;7.89;82.78
67157;SHT31;54086;50.126;8.710;2023-03-14T16:15:22;7.82;82.12
67157;SHT31;54086;50.126;8.710;2023-03-14T16:17:52;7.78;82.17
67157;SHT31;54086;50.126;8.710;2023-03-14T16:20:18;7.78;81.95
67157;SHT31;54086;50.126;8.710;2023-03-14T16:22:44;7.86;82.60
67157;SHT31;54086;50.126;8.710;2023-03-14T16:25:10;7.69;82.37
67157;SHT31;54086;50.126;8.710;2023-03-14T16:27:36;7.68;82.52
67157;SHT31;54086;50.126;8.710;2023-03-14T16:30:01;7.65;82.88
67157;SHT31;54086;50.126;8.710;2023-03-14T16:32:27;7.64;83.07
67157;SHT31;54086;50.126;8.710;2023-03-14T16:34:53;7.62;83.86
67157;SHT31;54086;50.126;8.710;2023-03-14T16:37:18;7.58;84.24
67157;SHT31;54086;50.126;8.710;2023-03-14T16:39:46;7.51;84.00
67157;SHT31;54086;50.126;8.710;2023-03-14T16:42:12;7.47;84.26
67157;SHT31;54086;50.126;8.710;2023-03-14T16:44:37;7.52;85.03
67157;SHT31;54086;50.126;8.710;2023-03-14T16:47:02;7.46;84.89
67157;SHT31;54086;50.126;8.710;2023-03-14T16:49:28;7.52;84.32